الصفحة الرئيسية
METAR-TAF:

METAR-TAF

مطار :

مطار نيتاجي سوبهاس شاندرا بوس الدولي

كلكتا, الهند

دائرة عرض: 22-39N, خط طول: 088-27E, ارتفاع: 4 متر

مراقبة الطقس الحالي

تاريخ ووقت الإصدار 16 دقيقة قبل الساعة 04:30UTC
ريح 5 عقدة من الجنوب/الجنوب الشرقي
درجة الحرارة 27°درجة مئوية
الرطوبة 66%
ضغط 1014 hPa
الرؤية: 2400 متر
العجاج

METAR: VECC 220430Z 15005KT 2400 HZ NSC 27/20 Q1014 NOSIG

زمن: 10:16 (04:46 UTC)

توقعات

تاريخ ووقت الإصدار 2ساعات و 46 دقيقة قبل الساعة 02:00UTC
التوقعات صالحة من22 الساعة 03 UTC إلى 22 الساعة 12 UTC
ريح 5 عقدة من الجنوب/الجنوب الغربي
الرؤية: 2200 متر
غيوم متفرقة على ارتفاع 1800 قدم
غيوم متفرقة على ارتفاع 10000 قدم
غشاء
أصبح
من 22 الساعة 07 UTC إلى 22 الساعة 09 UTC
الرؤية: 3500 متر
العجاج

TAF: VECC 220200Z 2203/2212 20005KT 2200 BR SCT018 SCT100 BECMG 2207/2209 3500 HZ

أرصاد الطقس والتوقعات من أكثر من 4000 مطار (تقارير الطقس للمطار METAR والتنبؤ بالطقس بالمطارTAF).

المحطات المتاحة هي النقط الصفراء والحمراء على الخريطة.

حرك المؤشر فوق النقطة لمعرفة اسم المحطة.

ثم انقر لمعرفة أرصاد وتوقعات الطقس.

لتغيير الخارطة: اضغط على الأزرار الخضراء مع رمز الصليب الأسود للتكبير. على الزر الأخضر مع شرطة للتصغير، أو على الأسهم الخضراء للخرائط المجاورة.


METAR-TAF: